createdAt,value
2018-08-11T00:00:29.841Z,90.55
2018-08-11T00:01:29.823Z,90.20
2018-08-11T00:02:29.830Z,90.13
2018-08-11T00:03:29.750Z,89.94
2018-08-11T00:04:29.745Z,89.64
2018-08-11T00:05:29.705Z,89.62
2018-08-11T00:06:29.779Z,89.80
2018-08-11T00:07:29.750Z,89.67
2018-08-11T00:08:29.830Z,89.83
2018-08-11T00:09:29.748Z,89.45
2018-08-11T00:10:29.773Z,89.06
2018-08-11T00:11:29.779Z,88.68
2018-08-11T00:12:29.849Z,88.41
2018-08-11T00:13:29.787Z,88.25
2018-08-11T00:14:29.787Z,88.15
2018-08-11T00:15:29.853Z,88.01
2018-08-11T00:16:29.797Z,87.93
2018-08-11T00:17:29.853Z,87.93
2018-08-11T00:18:29.852Z,87.74
2018-08-11T00:19:29.855Z,87.96
2018-08-11T00:20:29.786Z,88.01
2018-08-11T00:21:29.751Z,87.69
2018-08-11T00:22:29.846Z,87.59
2018-08-11T00:23:29.751Z,87.77
2018-08-11T00:24:29.758Z,87.69
2018-08-11T00:25:29.764Z,87.45
2018-08-11T00:26:29.809Z,87.32
2018-08-11T00:27:29.758Z,87.13
2018-08-11T00:28:29.765Z,86.94
2018-08-11T00:29:29.763Z,86.57
2018-08-11T00:30:29.763Z,86.09
2018-08-11T00:31:29.797Z,85.38
2018-08-11T00:32:29.866Z,85.21
2018-08-11T00:33:29.797Z,84.95
2018-08-11T00:34:29.867Z,84.71
2018-08-11T00:35:29.792Z,84.47
2018-08-11T00:36:29.881Z,84.34
2018-08-11T00:37:29.795Z,84.12
2018-08-11T00:38:29.867Z,83.81
2018-08-11T00:39:29.798Z,84.12
2018-08-11T00:40:29.876Z,84.17
2018-08-11T00:41:29.827Z,84.17
2018-08-11T00:42:29.830Z,84.34
2018-08-11T00:43:29.756Z,84.50
2018-08-11T00:44:29.740Z,84.58
2018-08-11T00:45:29.820Z,84.87
2018-08-11T00:46:29.835Z,85.03
2018-08-11T00:47:29.802Z,84.76
2018-08-11T00:48:29.740Z,84.81
2018-08-11T00:49:29.836Z,84.87
2018-08-11T00:50:29.805Z,85.32
2018-08-11T00:51:29.806Z,85.48
2018-08-11T00:52:29.877Z,85.85
2018-08-11T00:53:29.812Z,85.96
2018-08-11T00:54:29.833Z,86.01
2018-08-11T00:55:29.808Z,85.80
2018-08-11T00:56:29.881Z,85.88
2018-08-11T00:57:29.910Z,85.93
2018-08-11T00:58:29.810Z,86.01
2018-08-11T00:59:29.884Z,86.22
2018-08-11T01:00:29.857Z,86.44
2018-08-11T01:01:29.814Z,86.94
2018-08-11T01:02:29.979Z,86.91
2018-08-11T01:03:29.815Z,86.87
2018-08-11T01:04:29.894Z,86.94
2018-08-11T01:05:29.817Z,87.48
2018-08-11T01:06:29.888Z,87.72
2018-08-11T01:07:29.823Z,87.88
2018-08-11T01:08:29.890Z,88.46
2018-08-11T01:09:29.825Z,88.76
2018-08-11T01:10:29.896Z,89.27
2018-08-11T01:11:29.749Z,89.45
2018-08-11T01:12:29.860Z,89.59
2018-08-11T01:13:29.827Z,89.32
2018-08-11T01:14:29.878Z,89.37
2018-08-11T01:15:29.866Z,89.59
2018-08-11T01:16:29.843Z,89.75
2018-08-11T01:17:29.861Z,89.88
2018-08-11T01:18:29.762Z,90.26
2018-08-11T01:19:29.863Z,90.69
2018-08-11T01:20:29.797Z,91.07
2018-08-11T01:21:29.898Z,91.38
2018-08-11T01:22:29.828Z,91.33
2018-08-11T01:23:29.899Z,91.47
2018-08-11T01:24:29.832Z,91.55
2018-08-11T01:25:29.901Z,91.60
2018-08-11T01:26:29.857Z,91.63
2018-08-11T01:27:29.837Z,91.57
2018-08-11T01:28:29.904Z,91.38
2018-08-11T01:29:29.834Z,91.33
2018-08-11T01:30:29.831Z,91.22
2018-08-11T01:31:29.906Z,91.22
2018-08-11T01:32:29.922Z,91.17
2018-08-11T01:33:29.906Z,90.98
2018-08-11T01:34:29.838Z,90.96
2018-08-11T01:35:29.873Z,90.85
2018-08-11T01:36:29.839Z,90.74
2018-08-11T01:37:29.918Z,90.63
2018-08-11T01:38:29.841Z,90.15
2018-08-11T01:39:29.922Z,89.86
2018-08-11T01:40:29.843Z,89.75
2018-08-11T01:41:29.859Z,89.86
2018-08-11T01:42:29.871Z,89.86
2018-08-11T01:43:29.822Z,89.88
2018-08-11T01:44:29.899Z,90.05
2018-08-11T01:45:29.946Z,90.07
2018-08-11T01:46:29.894Z,90.09
2018-08-11T01:47:29.843Z,90.23
2018-08-11T01:48:29.945Z,90.47
2018-08-11T01:49:29.868Z,90.80
2018-08-11T01:50:29.845Z,91.17
2018-08-11T01:51:29.889Z,91.25
2018-08-11T01:52:29.980Z,91.09
2018-08-11T01:53:29.821Z,89.24
2018-08-11T01:54:29.868Z,87.69
2018-08-11T01:55:29.914Z,87.18
2018-08-11T01:56:29.888Z,87.00
2018-08-11T01:57:29.907Z,86.94
2018-08-11T01:58:29.870Z,86.57
2018-08-11T01:59:29.911Z,86.25
2018-08-11T02:00:29.789Z,86.17
2018-08-11T02:01:29.928Z,86.28
2018-08-11T02:02:29.857Z,86.52
2018-08-11T02:03:29.930Z,86.30
2018-08-11T02:04:29.928Z,85.61
2018-08-11T02:05:29.857Z,85.64
2018-08-11T02:06:29.933Z,85.24
2018-08-11T02:07:29.862Z,84.47
2018-08-11T02:08:29.933Z,84.15
2018-08-11T02:09:29.864Z,84.52
2018-08-11T02:10:29.933Z,84.44
2018-08-11T02:11:29.869Z,84.34
2018-08-11T02:12:29.935Z,84.34
2018-08-11T02:13:29.863Z,83.94
2018-08-11T02:14:29.939Z,84.12
2018-08-11T02:15:29.867Z,83.65
2018-08-11T02:16:29.868Z,83.09
2018-08-11T02:17:29.868Z,83.22
2018-08-11T02:18:29.940Z,83.62
2018-08-11T02:19:29.937Z,83.83
2018-08-11T02:20:29.870Z,83.86
2018-08-11T02:21:29.940Z,83.78
2018-08-11T02:22:29.870Z,83.91
2018-08-11T02:23:29.945Z,83.54
2018-08-11T02:24:29.869Z,83.65
2018-08-11T02:25:29.945Z,83.54
2018-08-11T02:26:29.872Z,83.62
2018-08-11T02:27:29.945Z,83.65
2018-08-11T02:28:29.877Z,83.70
2018-08-11T02:29:29.825Z,83.81
2018-08-11T02:30:29.878Z,83.86
2018-08-11T02:31:29.880Z,83.49
2018-08-11T02:32:29.919Z,83.57
2018-08-11T02:33:29.881Z,83.59
2018-08-11T02:34:30.038Z,83.73
2018-08-11T02:35:29.955Z,83.89
2018-08-11T02:36:29.963Z,84.17
2018-08-11T02:37:29.894Z,84.39
2018-08-11T02:38:29.886Z,84.44
2018-08-11T02:39:29.953Z,84.50
2018-08-11T02:40:29.879Z,84.50
2018-08-11T02:41:29.956Z,84.50
2018-08-11T02:42:29.958Z,84.87
2018-08-11T02:43:29.886Z,85.35
2018-08-11T02:44:29.956Z,85.72
2018-08-11T02:45:29.885Z,85.88
2018-08-11T02:46:29.916Z,85.83
2018-08-11T02:47:29.960Z,85.85
2018-08-11T02:48:29.962Z,86.07
2018-08-11T02:49:29.887Z,86.17
2018-08-11T02:50:29.897Z,86.46
2018-08-11T02:51:29.961Z,86.33
2018-08-11T02:52:29.899Z,85.32
2018-08-11T02:53:29.965Z,84.74
2018-08-11T02:54:29.889Z,84.58
2018-08-11T02:55:29.963Z,82.88
2018-08-11T02:56:29.894Z,82.14
2018-08-11T02:57:29.966Z,81.34
2018-08-11T02:58:29.897Z,79.75
2018-08-11T02:59:29.898Z,79.17
2018-08-11T03:00:29.971Z,78.52
2018-08-11T03:01:29.852Z,78.70
2018-08-11T03:02:29.913Z,78.78
2018-08-11T03:03:29.867Z,78.07
2018-08-11T03:04:29.880Z,76.97
2018-08-11T03:05:29.863Z,77.07
2018-08-11T03:06:29.920Z,77.04
2018-08-11T03:07:29.834Z,76.18
2018-08-11T03:08:29.938Z,75.92
2018-08-11T03:09:29.925Z,75.99
2018-08-11T03:10:29.858Z,75.96
2018-08-11T03:11:29.937Z,75.81
2018-08-11T03:12:29.824Z,75.76
2018-08-11T03:13:29.918Z,76.23
2018-08-11T03:14:29.923Z,76.46
2018-08-11T03:15:29.994Z,77.04
2018-08-11T03:16:29.830Z,77.36
2018-08-11T03:17:29.882Z,77.59
2018-08-11T03:18:29.993Z,77.73
2018-08-11T03:19:29.920Z,77.67
2018-08-11T03:20:29.952Z,77.86
2018-08-11T03:21:29.877Z,77.97
2018-08-11T03:22:29.910Z,78.25
2018-08-11T03:23:29.983Z,78.17
2018-08-11T03:24:29.914Z,78.23
2018-08-11T03:25:29.986Z,78.57
2018-08-11T03:26:29.918Z,78.52
2018-08-11T03:27:29.986Z,78.73
2018-08-11T03:28:29.987Z,78.62
2018-08-11T03:29:29.919Z,78.54
2018-08-11T03:30:29.989Z,78.17
2018-08-11T03:31:29.984Z,78.31
2018-08-11T03:32:29.936Z,78.57
2018-08-11T03:33:29.854Z,78.65
2018-08-11T03:34:29.961Z,78.54
2018-08-11T03:35:29.958Z,78.83
2018-08-11T03:36:29.940Z,78.91
2018-08-11T03:37:29.893Z,79.07
2018-08-11T03:38:29.964Z,79.36
2018-08-11T03:39:29.982Z,79.36
2018-08-11T03:40:29.855Z,79.36
2018-08-11T03:41:29.921Z,79.28
2018-08-11T03:42:30.003Z,79.13
2018-08-11T03:43:29.954Z,79.49
2018-08-11T03:44:29.998Z,79.65
2018-08-11T03:45:29.924Z,79.73
2018-08-11T03:46:30.002Z,80.05
2018-08-11T03:47:29.931Z,79.91
2018-08-11T03:48:30.028Z,79.97
2018-08-11T03:49:29.931Z,80.18
2018-08-11T03:50:30.006Z,80.39
2018-08-11T03:51:29.929Z,80.79
2018-08-11T03:52:29.891Z,80.79
2018-08-11T03:53:29.975Z,80.23
2018-08-11T03:54:29.910Z,80.60
2018-08-11T03:55:29.879Z,80.18
2018-08-11T03:56:30.001Z,80.39
2018-08-11T03:57:29.906Z,80.31
2018-08-11T03:58:29.976Z,79.91
2018-08-11T03:59:29.874Z,79.71
2018-08-11T04:00:29.917Z,78.75
2018-08-11T04:01:29.908Z,78.62
2018-08-11T04:02:29.976Z,78.73
2018-08-11T04:03:29.911Z,79.10
2018-08-11T04:04:29.908Z,79.23
2018-08-11T04:05:29.943Z,79.28
2018-08-11T04:06:30.014Z,79.23
2018-08-11T04:07:29.915Z,79.36
2018-08-11T04:08:29.948Z,79.60
2018-08-11T04:09:29.964Z,79.36
2018-08-11T04:10:29.927Z,78.99
2018-08-11T04:11:29.964Z,78.89
2018-08-11T04:12:29.978Z,79.20
2018-08-11T04:13:29.999Z,79.57
2018-08-11T04:14:29.885Z,79.68
2018-08-11T04:15:29.954Z,79.86
2018-08-11T04:16:29.977Z,79.79
2018-08-11T04:17:29.971Z,79.55
2018-08-11T04:18:29.930Z,79.75
2018-08-11T04:19:29.915Z,79.97
2018-08-11T04:20:29.888Z,79.99
2018-08-11T04:21:29.879Z,79.60
2018-08-11T04:22:29.925Z,79.73
2018-08-11T04:23:29.998Z,79.83
2018-08-11T04:24:29.932Z,78.05
2018-08-11T04:25:30.018Z,76.62
2018-08-11T04:26:30.012Z,77.94
2018-08-11T04:27:29.932Z,77.94
2018-08-11T04:28:29.990Z,76.12
2018-08-11T04:29:30.015Z,76.31
2018-08-11T04:30:30.000Z,76.44
2018-08-11T04:31:29.999Z,76.83
2018-08-11T04:32:29.964Z,77.41
2018-08-11T04:33:30.036Z,78.39
2018-08-11T04:34:29.967Z,76.44
2018-08-11T04:35:30.038Z,76.65
2018-08-11T04:36:29.926Z,76.26
2018-08-11T04:37:29.967Z,76.41
2018-08-11T04:38:30.037Z,77.44
2018-08-11T04:39:29.968Z,78.12
2018-08-11T04:40:30.039Z,75.96
2018-08-11T04:41:29.968Z,77.09
2018-08-11T04:42:29.941Z,78.07
2018-08-11T04:43:29.906Z,81.00
2018-08-11T04:44:29.989Z,82.29
2018-08-11T04:45:29.945Z,81.71
2018-08-11T04:46:30.027Z,80.68
2018-08-11T04:47:29.967Z,82.16
2018-08-11T04:48:30.027Z,85.32
2018-08-11T04:49:30.038Z,86.76
2018-08-11T04:50:29.946Z,88.76
2018-08-11T04:51:29.987Z,89.75
2018-08-11T04:52:29.978Z,91.07
2018-08-11T04:53:30.042Z,92.16
2018-08-11T04:54:29.998Z,93.08
2018-08-11T04:55:30.047Z,93.43
2018-08-11T04:56:29.978Z,93.72
2018-08-11T04:57:30.050Z,94.02
2018-08-11T04:58:29.974Z,94.53
2018-08-11T04:59:30.049Z,94.86
2018-08-11T05:00:29.990Z,94.93
2018-08-11T05:01:30.056Z,95.01
2018-08-11T05:02:29.979Z,95.23
2018-08-11T05:03:30.052Z,95.53
2018-08-11T05:04:29.983Z,96.04
2018-08-11T05:05:29.982Z,96.45
2018-08-11T05:06:30.053Z,96.66
2018-08-11T05:07:29.980Z,96.77
2018-08-11T05:08:30.055Z,96.80
2018-08-11T05:09:29.987Z,96.69
2018-08-11T05:10:30.064Z,96.77
2018-08-11T05:11:29.988Z,97.04
2018-08-11T05:12:30.060Z,97.66
2018-08-11T05:13:29.989Z,98.10
2018-08-11T05:14:29.989Z,98.48
2018-08-11T05:15:30.064Z,98.83
2018-08-11T05:16:29.990Z,99.07
2018-08-11T05:17:29.993Z,99.26
2018-08-11T05:18:29.992Z,99.40
2018-08-11T05:19:30.065Z,99.51
2018-08-11T05:20:29.995Z,99.64
2018-08-11T05:21:29.992Z,99.83
2018-08-11T05:22:29.994Z,99.99
2018-08-11T05:23:29.955Z,99.99
2018-08-11T05:24:30.011Z,99.99
2018-08-11T05:25:29.929Z,99.99
2018-08-11T05:26:29.996Z,99.99
2018-08-11T05:27:30.033Z,99.99
2018-08-11T05:28:29.990Z,99.99
2018-08-11T05:29:29.998Z,99.99
2018-08-11T05:30:30.040Z,99.99
2018-08-11T05:31:29.949Z,99.99
2018-08-11T05:32:30.001Z,99.99
2018-08-11T05:33:30.076Z,99.99
2018-08-11T05:34:29.994Z,99.99
2018-08-11T05:35:30.093Z,99.99
2018-08-11T05:36:30.006Z,99.99
2018-08-11T05:37:30.072Z,99.99
2018-08-11T05:38:30.000Z,99.99
2018-08-11T05:39:30.073Z,99.99
2018-08-11T05:40:30.074Z,99.99
2018-08-11T05:41:30.052Z,99.99
2018-08-11T05:42:30.032Z,99.99
2018-08-11T05:43:30.090Z,99.99
2018-08-11T05:44:29.934Z,99.99
2018-08-11T05:45:30.022Z,99.99
2018-08-11T05:46:29.974Z,99.99
2018-08-11T05:47:29.930Z,99.99
2018-08-11T05:48:29.977Z,99.99
2018-08-11T05:49:29.917Z,99.99
2018-08-11T05:50:30.027Z,99.99
2018-08-11T05:51:30.081Z,99.99
2018-08-11T05:52:29.970Z,99.99
2018-08-11T05:53:29.949Z,99.99
2018-08-11T05:54:29.987Z,99.99
2018-08-11T05:55:29.985Z,99.99
2018-08-11T05:56:30.036Z,99.99
2018-08-11T05:57:30.074Z,99.99
2018-08-11T05:58:29.950Z,99.99
2018-08-11T05:59:30.028Z,99.99
2018-08-11T06:00:29.974Z,99.99
2018-08-11T06:01:30.038Z,99.99
2018-08-11T06:02:30.022Z,99.99
2018-08-11T06:03:30.091Z,99.99
2018-08-11T06:04:30.021Z,99.99
2018-08-11T06:05:30.090Z,99.99
2018-08-11T06:06:30.020Z,99.99
2018-08-11T06:07:30.093Z,99.99
2018-08-11T06:08:30.030Z,99.99
2018-08-11T06:09:30.095Z,99.99
2018-08-11T06:10:30.110Z,99.99
2018-08-11T06:11:30.095Z,99.99
2018-08-11T06:12:30.032Z,99.86
2018-08-11T06:13:30.100Z,97.77
2018-08-11T06:14:30.027Z,95.31
2018-08-11T06:15:30.106Z,92.97
2018-08-11T06:16:30.032Z,91.52
2018-08-11T06:17:30.104Z,90.69
2018-08-11T06:18:30.038Z,89.83
2018-08-11T06:19:30.105Z,89.59
2018-08-11T06:20:30.031Z,89.27
2018-08-11T06:21:30.109Z,88.76
2018-08-11T06:22:30.035Z,88.12
2018-08-11T06:23:30.110Z,88.71
2018-08-11T06:24:30.039Z,89.03
2018-08-11T06:25:30.111Z,88.23
2018-08-11T06:26:30.045Z,87.16
2018-08-11T06:27:30.113Z,84.52
2018-08-11T06:28:30.046Z,85.61
2018-08-11T06:29:30.116Z,84.12
2018-08-11T06:30:30.079Z,84.63
2018-08-11T06:31:30.143Z,84.95
2018-08-11T06:32:29.938Z,83.86
2018-08-11T06:33:29.961Z,83.65
2018-08-11T06:34:30.054Z,83.89
2018-08-11T06:35:30.004Z,84.23
2018-08-11T06:36:29.969Z,84.23
2018-08-11T06:37:30.062Z,80.63
2018-08-11T06:38:30.011Z,78.65
2018-08-11T06:39:30.063Z,79.10
2018-08-11T06:40:30.151Z,79.79
2018-08-11T06:41:30.062Z,78.86
2018-08-11T06:42:30.050Z,79.75
2018-08-11T06:43:30.172Z,79.65
2018-08-11T06:44:30.052Z,79.33
2018-08-11T06:45:30.046Z,75.55
2018-08-11T06:46:30.170Z,75.94
2018-08-11T06:47:30.054Z,75.99
2018-08-11T06:48:30.131Z,76.34
2018-08-11T06:49:30.052Z,76.57
2018-08-11T06:50:30.126Z,76.62
2018-08-11T06:51:30.057Z,76.28
2018-08-11T06:52:30.123Z,76.36
2018-08-11T06:53:30.054Z,76.73
2018-08-11T06:54:30.128Z,76.23
2018-08-11T06:55:30.065Z,75.07
2018-08-11T06:56:30.335Z,77.44
2018-08-11T06:57:30.134Z,76.12
2018-08-11T06:58:30.131Z,76.20
2018-08-11T06:59:30.065Z,76.12
2018-08-11T07:00:30.136Z,76.26
2018-08-11T07:01:30.073Z,76.36
2018-08-11T07:02:30.133Z,76.81
2018-08-11T07:03:30.069Z,78.57
2018-08-11T07:04:30.135Z,79.15
2018-08-11T07:05:30.068Z,78.20
2018-08-11T07:06:30.139Z,79.60
2018-08-11T07:07:30.066Z,81.48
2018-08-11T07:08:30.195Z,81.24
2018-08-11T07:09:30.066Z,80.26
2018-08-11T07:10:30.165Z,77.20
2018-08-11T07:11:30.069Z,77.04
2018-08-11T07:12:30.141Z,78.47
2018-08-11T07:13:30.078Z,78.07
2018-08-11T07:14:30.076Z,76.60
2018-08-11T07:15:30.141Z,75.07
2018-08-11T07:16:30.111Z,74.42
2018-08-11T07:17:30.147Z,75.07
2018-08-11T07:18:30.075Z,75.15
2018-08-11T07:19:30.152Z,74.03
2018-08-11T07:20:30.072Z,74.47
2018-08-11T07:21:30.149Z,75.37
2018-08-11T07:22:30.095Z,75.62
2018-08-11T07:23:30.031Z,78.47
2018-08-11T07:24:30.079Z,74.68
2018-08-11T07:25:30.030Z,74.94
2018-08-11T07:26:30.197Z,73.55
2018-08-11T07:27:30.115Z,74.87
2018-08-11T07:28:30.115Z,74.73
2018-08-11T07:29:30.126Z,72.67
2018-08-11T07:30:30.033Z,72.53
2018-08-11T07:31:30.096Z,72.51
2018-08-11T07:32:30.032Z,73.16
2018-08-11T07:33:30.082Z,72.80
2018-08-11T07:34:30.142Z,73.24
2018-08-11T07:35:30.122Z,72.33
2018-08-11T07:36:30.199Z,73.01
2018-08-11T07:37:30.022Z,74.21
2018-08-11T07:38:30.126Z,71.23
2018-08-11T07:39:30.043Z,69.36
2018-08-11T07:40:30.082Z,71.13
2018-08-11T07:41:30.024Z,67.98
2018-08-11T07:42:30.063Z,69.57
2018-08-11T07:43:30.185Z,70.74
2018-08-11T07:44:30.075Z,68.63
2018-08-11T07:45:30.083Z,67.96
2018-08-11T07:46:30.109Z,66.43
2018-08-11T07:47:30.100Z,65.65
2018-08-11T07:48:30.149Z,64.78
2018-08-11T07:49:30.129Z,64.18
2018-08-11T07:50:30.108Z,63.87
2018-08-11T07:51:30.050Z,63.95
2018-08-11T07:52:30.139Z,62.74
2018-08-11T07:53:30.106Z,63.64
2018-08-11T07:54:30.115Z,65.73
2018-08-11T07:55:30.135Z,63.92
2018-08-11T07:56:30.121Z,65.06
2018-08-11T07:57:30.055Z,63.87
2018-08-11T07:58:30.138Z,65.08
2018-08-11T07:59:30.139Z,64.65
2018-08-11T08:00:30.040Z,65.01
2018-08-11T08:01:30.173Z,63.87
2018-08-11T08:02:30.107Z,64.38
2018-08-11T08:03:30.131Z,62.66
2018-08-11T08:04:30.158Z,62.35
2018-08-11T08:05:30.108Z,64.54
2018-08-11T08:06:30.144Z,63.90
2018-08-11T08:07:30.132Z,61.66
2018-08-11T08:08:30.163Z,61.61
2018-08-11T08:09:30.139Z,59.89
2018-08-11T08:10:30.146Z,60.14
2018-08-11T08:11:30.052Z,60.89
2018-08-11T08:12:30.080Z,60.17
2018-08-11T08:13:30.173Z,60.91
2018-08-11T08:14:30.095Z,62.18
2018-08-11T08:15:30.221Z,61.71
2018-08-11T08:16:30.151Z,59.53
2018-08-11T08:17:30.193Z,58.94
2018-08-11T08:18:30.113Z,58.56
2018-08-11T08:19:30.045Z,59.40
2018-08-11T08:20:30.075Z,60.35
2018-08-11T08:21:30.155Z,60.48
2018-08-11T08:22:30.144Z,58.30
2018-08-11T08:23:30.173Z,58.23
2018-08-11T08:24:30.144Z,59.32
2018-08-11T08:25:30.158Z,60.76
2018-08-11T08:26:30.289Z,59.04
2018-08-11T08:27:30.151Z,58.46
2018-08-11T08:28:30.096Z,59.63
2018-08-11T08:29:30.162Z,60.45
2018-08-11T08:30:30.084Z,59.02
2018-08-11T08:31:30.110Z,58.96
2018-08-11T08:32:30.142Z,58.96
2018-08-11T08:33:30.165Z,59.97
2018-08-11T08:34:30.108Z,57.08
2018-08-11T08:35:30.128Z,58.89
2018-08-11T08:36:30.178Z,59.02
2018-08-11T08:37:30.130Z,59.35
2018-08-11T08:38:30.154Z,59.56
2018-08-11T08:39:30.222Z,60.91
2018-08-11T08:40:30.072Z,58.84
2018-08-11T08:41:30.232Z,61.56
2018-08-11T08:42:30.148Z,61.33
2018-08-11T08:43:30.088Z,60.84
2018-08-11T08:44:30.063Z,60.61
2018-08-11T08:45:30.148Z,61.25
2018-08-11T08:46:30.153Z,62.07
2018-08-11T08:47:30.109Z,60.58
2018-08-11T08:48:30.056Z,60.27
2018-08-11T08:49:30.065Z,58.12
2018-08-11T08:50:30.065Z,57.69
2018-08-11T08:51:30.170Z,58.48
2018-08-11T08:52:30.121Z,59.50
2018-08-11T08:53:30.123Z,58.76
2018-08-11T08:54:30.070Z,60.05
2018-08-11T08:55:30.094Z,58.68
2018-08-11T08:56:30.105Z,58.59
2018-08-11T08:57:30.171Z,59.12
2018-08-11T08:58:30.100Z,60.40
2018-08-11T08:59:30.176Z,59.20
2018-08-11T09:00:30.109Z,57.89
2018-08-11T09:01:30.100Z,59.30
2018-08-11T09:02:30.144Z,59.25
2018-08-11T09:03:30.221Z,59.73
2018-08-11T09:04:30.147Z,59.94
2018-08-11T09:05:30.217Z,61.63
2018-08-11T09:06:30.134Z,61.46
2018-08-11T09:07:30.222Z,60.61
2018-08-11T09:08:30.148Z,60.61
2018-08-11T09:09:30.218Z,60.84
2018-08-11T09:10:30.156Z,60.45
2018-08-11T09:11:30.221Z,60.68
2018-08-11T09:12:30.067Z,60.40
2018-08-11T09:13:30.096Z,60.84
2018-08-11T09:14:30.122Z,61.58
2018-08-11T09:15:30.168Z,60.40
2018-08-11T09:16:30.174Z,60.20
2018-08-11T09:17:30.078Z,58.94
2018-08-11T09:18:30.170Z,58.71
2018-08-11T09:19:30.087Z,59.02
2018-08-11T09:20:30.083Z,59.84
2018-08-11T09:21:30.244Z,58.33
2018-08-11T09:22:30.230Z,56.77
2018-08-11T09:23:30.156Z,56.39
2018-08-11T09:24:30.232Z,54.71
2018-08-11T09:25:30.163Z,55.27
2018-08-11T09:26:30.233Z,53.59
2018-08-11T09:27:30.256Z,55.42
2018-08-11T09:28:30.162Z,54.43
2018-08-11T09:29:30.323Z,55.39
2018-08-11T09:30:30.237Z,54.96
2018-08-11T09:31:30.170Z,54.15
2018-08-11T09:32:30.096Z,54.76
2018-08-11T09:33:30.200Z,55.42
2018-08-11T09:34:30.217Z,55.78
2018-08-11T09:35:30.136Z,55.32
2018-08-11T09:36:30.136Z,55.19
2018-08-11T09:37:30.188Z,53.84
2018-08-11T09:38:30.156Z,53.18
2018-08-11T09:39:30.144Z,53.03
2018-08-11T09:40:30.244Z,54.10
2018-08-11T09:41:30.183Z,52.70
2018-08-11T09:42:30.177Z,52.75
2018-08-11T09:43:30.171Z,51.82
2018-08-11T09:44:30.177Z,52.81
2018-08-11T09:45:30.249Z,54.76
2018-08-11T09:46:30.179Z,52.96
2018-08-11T09:47:30.251Z,52.81
2018-08-11T09:48:30.177Z,52.85
2018-08-11T09:49:30.253Z,53.09
2018-08-11T09:50:30.320Z,54.73
2018-08-11T09:51:30.252Z,53.21
2018-08-11T09:52:30.208Z,50.35
2018-08-11T09:53:30.159Z,49.57
2018-08-11T09:54:30.120Z,52.75
2018-08-11T09:55:30.199Z,48.31
2018-08-11T09:56:30.115Z,47.13
2018-08-11T09:57:30.123Z,46.68
2018-08-11T09:58:30.199Z,47.38
2018-08-11T09:59:30.163Z,45.77
2018-08-11T10:00:30.212Z,47.26
2018-08-11T10:01:30.166Z,48.28
2018-08-11T10:02:30.200Z,48.16
2018-08-11T10:03:30.256Z,47.78
2018-08-11T10:04:30.230Z,46.85
2018-08-11T10:05:30.161Z,47.13
2018-08-11T10:06:30.162Z,50.20
2018-08-11T10:07:30.227Z,47.78
2018-08-11T10:08:30.121Z,47.03
2018-08-11T10:09:30.174Z,47.06
2018-08-11T10:10:30.273Z,43.35
2018-08-11T10:11:30.227Z,42.60
2018-08-11T10:12:30.198Z,42.20
2018-08-11T10:13:30.197Z,42.23
2018-08-11T10:14:30.272Z,42.45
2018-08-11T10:15:30.196Z,42.92
2018-08-11T10:16:30.272Z,43.50
2018-08-11T10:17:30.230Z,43.70
2018-08-11T10:18:30.218Z,43.30
2018-08-11T10:19:30.299Z,41.31
2018-08-11T10:20:30.201Z,41.15
2018-08-11T10:21:30.274Z,40.76
2018-08-11T10:22:30.143Z,40.76
2018-08-11T10:23:30.228Z,40.73
2018-08-11T10:24:30.232Z,40.54
2018-08-11T10:25:30.226Z,40.48
2018-08-11T10:26:30.143Z,39.96
2018-08-11T10:27:30.236Z,40.41
2018-08-11T10:28:30.177Z,41.18
2018-08-11T10:29:30.259Z,41.08
2018-08-11T10:30:30.234Z,40.85
2018-08-11T10:31:30.185Z,41.15
2018-08-11T10:32:30.213Z,40.51
2018-08-11T10:33:30.277Z,41.82
2018-08-11T10:34:30.222Z,40.93
2018-08-11T10:35:30.287Z,40.13
2018-08-11T10:36:30.210Z,41.93
2018-08-11T10:37:30.283Z,41.68
2018-08-11T10:38:30.220Z,40.48
2018-08-11T10:39:30.210Z,41.01
2018-08-11T10:40:30.283Z,40.76
2018-08-11T10:41:30.286Z,41.80
2018-08-11T10:42:30.215Z,43.85
2018-08-11T10:43:30.290Z,44.72
2018-08-11T10:44:30.220Z,44.60
2018-08-11T10:45:30.292Z,43.57
2018-08-11T10:46:30.218Z,43.45
2018-08-11T10:47:30.293Z,44.22
2018-08-11T10:48:30.228Z,43.88
2018-08-11T10:49:30.296Z,44.57
2018-08-11T10:50:30.225Z,44.17
2018-08-11T10:51:30.294Z,44.93
2018-08-11T10:52:30.218Z,45.12
2018-08-11T10:53:30.220Z,42.42
2018-08-11T10:54:30.295Z,42.15
2018-08-11T10:55:30.221Z,42.70
2018-08-11T10:56:30.226Z,42.42
2018-08-11T10:57:30.314Z,41.93
2018-08-11T10:58:30.298Z,40.56
2018-08-11T10:59:30.301Z,40.68
2018-08-11T11:00:30.213Z,40.85
2018-08-11T11:01:30.229Z,41.61
2018-08-11T11:02:30.227Z,42.60
2018-08-11T11:03:30.301Z,42.33
2018-08-11T11:04:30.257Z,41.56
2018-08-11T11:05:30.301Z,41.80
2018-08-11T11:06:30.229Z,42.05
2018-08-11T11:07:30.304Z,41.73
2018-08-11T11:08:30.273Z,41.31
2018-08-11T11:09:30.306Z,41.48
2018-08-11T11:10:30.237Z,41.40
2018-08-11T11:11:30.306Z,41.50
2018-08-11T11:12:30.270Z,41.40
2018-08-11T11:13:30.134Z,41.01
2018-08-11T11:14:30.220Z,37.78
2018-08-11T11:15:30.132Z,37.98
2018-08-11T11:16:30.129Z,38.21
2018-08-11T11:17:30.176Z,36.97
2018-08-11T11:18:30.221Z,38.45
2018-08-11T11:19:30.297Z,41.53
2018-08-11T11:20:30.179Z,42.03
2018-08-11T11:21:30.241Z,41.26
2018-08-11T11:22:30.140Z,41.21
2018-08-11T11:23:30.222Z,43.57
2018-08-11T11:24:30.258Z,43.57
2018-08-11T11:25:30.356Z,43.97
2018-08-11T11:26:30.200Z,44.68
2018-08-11T11:27:30.300Z,44.07
2018-08-11T11:28:30.231Z,44.00
2018-08-11T11:29:30.198Z,43.40
2018-08-11T11:30:30.282Z,41.38
2018-08-11T11:31:30.289Z,42.62
2018-08-11T11:32:30.265Z,41.90
2018-08-11T11:33:30.198Z,41.35
2018-08-11T11:34:30.323Z,42.65
2018-08-11T11:35:30.230Z,42.12
2018-08-11T11:36:30.325Z,40.43
2018-08-11T11:37:30.312Z,42.33
2018-08-11T11:38:30.205Z,40.78
2018-08-11T11:39:30.232Z,38.72
2018-08-11T11:40:30.229Z,40.43
2018-08-11T11:41:30.205Z,46.95
2018-08-11T11:42:30.231Z,40.61
2018-08-11T11:43:30.242Z,42.85
2018-08-11T11:44:30.298Z,38.43
2018-08-11T11:45:30.287Z,38.18
2018-08-11T11:46:30.202Z,40.51
2018-08-11T11:47:30.233Z,39.79
2018-08-11T11:48:30.201Z,39.62
2018-08-11T11:49:30.240Z,39.42
2018-08-11T11:50:30.316Z,40.51
2018-08-11T11:51:30.196Z,41.40
2018-08-11T11:52:30.277Z,39.82
2018-08-11T11:53:30.268Z,38.82
2018-08-11T11:54:30.273Z,39.10
2018-08-11T11:55:30.342Z,39.64
2018-08-11T11:56:30.279Z,41.33
2018-08-11T11:57:30.364Z,38.92
2018-08-11T11:58:30.275Z,39.15
2018-08-11T11:59:30.271Z,38.94
2018-08-11T12:00:30.345Z,40.24
2018-08-11T12:01:30.274Z,40.38
2018-08-11T12:02:30.347Z,41.31
2018-08-11T12:03:30.273Z,40.66
2018-08-11T12:04:30.274Z,41.35
2018-08-11T12:05:30.350Z,41.85
2018-08-11T12:06:30.273Z,42.53
2018-08-11T12:07:30.351Z,43.10
2018-08-11T12:08:30.276Z,42.60
2018-08-11T12:09:30.350Z,41.38
2018-08-11T12:10:30.277Z,41.85
2018-08-11T12:11:30.351Z,42.42
2018-08-11T12:12:30.352Z,44.27
2018-08-11T12:13:30.284Z,41.85
2018-08-11T12:14:30.313Z,44.00
2018-08-11T12:15:30.233Z,43.92
2018-08-11T12:16:30.314Z,42.67
2018-08-11T12:17:30.310Z,43.65
2018-08-11T12:18:30.190Z,42.78
2018-08-11T12:20:30.243Z,42.45
2018-08-11T12:21:30.260Z,43.33
2018-08-11T12:22:30.265Z,42.90
2018-08-11T12:23:30.291Z,42.95
2018-08-11T12:24:30.302Z,43.82
2018-08-11T12:25:30.191Z,43.25
2018-08-11T12:26:30.251Z,43.77
2018-08-11T12:27:30.301Z,44.57
2018-08-11T12:28:30.250Z,44.02
2018-08-11T12:29:30.197Z,45.98
2018-08-11T12:30:30.307Z,44.05
2018-08-11T12:31:30.318Z,42.45
2018-08-11T12:32:30.304Z,40.91
2018-08-11T12:33:30.263Z,41.61
2018-08-11T12:34:30.301Z,40.21
2018-08-11T12:35:30.204Z,41.45
2018-08-11T12:36:30.317Z,41.43
2018-08-11T12:37:30.274Z,41.63
2018-08-11T12:38:30.318Z,41.33
2018-08-11T12:39:30.328Z,41.63
2018-08-11T12:40:30.308Z,41.63
2018-08-11T12:41:30.335Z,41.26
2018-08-11T12:42:30.229Z,41.61
2018-08-11T12:43:30.375Z,42.62
2018-08-11T12:44:30.375Z,41.85
2018-08-11T12:45:30.396Z,41.68
2018-08-11T12:46:30.330Z,41.75
2018-08-11T12:47:30.383Z,42.65
2018-08-11T12:48:30.311Z,41.88
2018-08-11T12:49:30.381Z,41.48
2018-08-11T12:50:30.309Z,42.28
2018-08-11T12:51:30.379Z,43.05
2018-08-11T12:52:30.333Z,42.97
2018-08-11T12:53:30.422Z,42.95